sensor_id;sensor_type;location;lat;lon;timestamp;P1;durP1;ratioP1;P2;durP2;ratioP2
21741;SDS011;11033;47.490;11.116;2022-12-18T00:01:36;20.52;;;11.57;;
21741;SDS011;11033;47.490;11.116;2022-12-18T00:04:03;18.95;;;11.05;;
21741;SDS011;11033;47.490;11.116;2022-12-18T00:06:30;21.42;;;11.45;;
21741;SDS011;11033;47.490;11.116;2022-12-18T00:08:57;20.05;;;11.07;;
21741;SDS011;11033;47.490;11.116;2022-12-18T00:11:25;24.20;;;11.90;;
21741;SDS011;11033;47.490;11.116;2022-12-18T00:13:53;21.75;;;11.38;;
21741;SDS011;11033;47.490;11.116;2022-12-18T00:16:20;18.85;;;10.27;;
21741;SDS011;11033;47.490;11.116;2022-12-18T00:18:51;23.33;;;10.98;;
21741;SDS011;11033;47.490;11.116;2022-12-18T00:21:19;21.15;;;11.15;;
21741;SDS011;11033;47.490;11.116;2022-12-18T00:23:45;19.90;;;10.95;;
21741;SDS011;11033;47.490;11.116;2022-12-18T00:26:12;22.90;;;11.75;;
21741;SDS011;11033;47.490;11.116;2022-12-18T00:28:43;21.70;;;10.98;;
21741;SDS011;11033;47.490;11.116;2022-12-18T00:31:10;26.92;;;12.75;;
21741;SDS011;11033;47.490;11.116;2022-12-18T00:33:41;21.88;;;11.10;;
21741;SDS011;11033;47.490;11.116;2022-12-18T00:36:07;21.80;;;11.13;;
21741;SDS011;11033;47.490;11.116;2022-12-18T00:38:36;22.88;;;12.20;;
21741;SDS011;11033;47.490;11.116;2022-12-18T00:41:02;22.38;;;10.85;;
21741;SDS011;11033;47.490;11.116;2022-12-18T00:43:28;22.38;;;11.73;;
21741;SDS011;11033;47.490;11.116;2022-12-18T00:45:53;19.30;;;11.27;;
21741;SDS011;11033;47.490;11.116;2022-12-18T00:48:19;27.88;;;12.50;;
21741;SDS011;11033;47.490;11.116;2022-12-18T00:50:44;21.42;;;11.68;;
21741;SDS011;11033;47.490;11.116;2022-12-18T00:53:10;20.90;;;10.82;;
21741;SDS011;11033;47.490;11.116;2022-12-18T00:55:39;19.98;;;11.40;;
21741;SDS011;11033;47.490;11.116;2022-12-18T00:58:06;22.10;;;11.55;;
21741;SDS011;11033;47.490;11.116;2022-12-18T01:00:34;21.42;;;12.10;;
21741;SDS011;11033;47.490;11.116;2022-12-18T01:03:00;20.67;;;11.38;;
21741;SDS011;11033;47.490;11.116;2022-12-18T01:05:25;25.52;;;12.93;;
21741;SDS011;11033;47.490;11.116;2022-12-18T01:07:51;25.08;;;12.80;;
21741;SDS011;11033;47.490;11.116;2022-12-18T01:10:16;25.25;;;13.23;;
21741;SDS011;11033;47.490;11.116;2022-12-18T01:12:42;25.83;;;13.48;;
21741;SDS011;11033;47.490;11.116;2022-12-18T01:15:08;22.50;;;11.10;;
21741;SDS011;11033;47.490;11.116;2022-12-18T01:17:36;23.65;;;12.60;;
21741;SDS011;11033;47.490;11.116;2022-12-18T01:20:01;20.67;;;11.43;;
21741;SDS011;11033;47.490;11.116;2022-12-18T01:22:27;19.42;;;10.43;;
21741;SDS011;11033;47.490;11.116;2022-12-18T01:24:52;23.67;;;11.88;;
21741;SDS011;11033;47.490;11.116;2022-12-18T01:27:18;25.52;;;12.48;;
21741;SDS011;11033;47.490;11.116;2022-12-18T01:29:43;20.95;;;12.18;;
21741;SDS011;11033;47.490;11.116;2022-12-18T01:32:08;18.97;;;10.80;;
21741;SDS011;11033;47.490;11.116;2022-12-18T01:34:35;21.73;;;12.05;;
21741;SDS011;11033;47.490;11.116;2022-12-18T01:37:02;21.75;;;11.30;;
21741;SDS011;11033;47.490;11.116;2022-12-18T01:39:30;19.23;;;11.10;;
21741;SDS011;11033;47.490;11.116;2022-12-18T01:41:57;22.55;;;11.65;;
21741;SDS011;11033;47.490;11.116;2022-12-18T01:47:27;22.02;;;11.52;;
21741;SDS011;11033;47.490;11.116;2022-12-18T01:50:17;18.02;;;9.77;;
21741;SDS011;11033;47.490;11.116;2022-12-18T01:52:53;22.33;;;11.88;;
21741;SDS011;11033;47.490;11.116;2022-12-18T01:55:22;20.08;;;10.75;;
21741;SDS011;11033;47.490;11.116;2022-12-18T01:57:51;20.85;;;11.18;;
21741;SDS011;11033;47.490;11.116;2022-12-18T02:00:19;20.42;;;10.27;;
21741;SDS011;11033;47.490;11.116;2022-12-18T02:02:46;21.90;;;11.60;;
21741;SDS011;11033;47.490;11.116;2022-12-18T02:05:13;19.35;;;10.32;;
21741;SDS011;11033;47.490;11.116;2022-12-18T02:16:08;18.40;;;9.80;;
21741;SDS011;11033;47.490;11.116;2022-12-18T02:18:37;22.67;;;11.50;;
21741;SDS011;11033;47.490;11.116;2022-12-18T02:26:24;20.67;;;10.57;;
21741;SDS011;11033;47.490;11.116;2022-12-18T02:31:25;24.63;;;12.02;;
21741;SDS011;11033;47.490;11.116;2022-12-18T02:33:56;21.63;;;11.45;;
21741;SDS011;11033;47.490;11.116;2022-12-18T02:36:25;28.27;;;14.43;;
21741;SDS011;11033;47.490;11.116;2022-12-18T02:38:53;26.73;;;14.30;;
21741;SDS011;11033;47.490;11.116;2022-12-18T02:41:20;23.80;;;12.23;;
21741;SDS011;11033;47.490;11.116;2022-12-18T02:43:50;23.98;;;12.40;;
21741;SDS011;11033;47.490;11.116;2022-12-18T02:46:25;20.13;;;9.88;;
21741;SDS011;11033;47.490;11.116;2022-12-18T02:48:51;25.40;;;12.52;;
21741;SDS011;11033;47.490;11.116;2022-12-18T02:51:30;21.27;;;10.82;;
21741;SDS011;11033;47.490;11.116;2022-12-18T02:54:07;21.52;;;11.18;;
21741;SDS011;11033;47.490;11.116;2022-12-18T02:56:39;18.13;;;10.25;;
21741;SDS011;11033;47.490;11.116;2022-12-18T02:59:19;27.10;;;12.07;;
21741;SDS011;11033;47.490;11.116;2022-12-18T03:02:00;20.30;;;11.27;;
21741;SDS011;11033;47.490;11.116;2022-12-18T03:04:46;20.63;;;11.18;;
21741;SDS011;11033;47.490;11.116;2022-12-18T03:07:28;20.17;;;10.52;;
21741;SDS011;11033;47.490;11.116;2022-12-18T03:10:01;21.42;;;11.07;;
21741;SDS011;11033;47.490;11.116;2022-12-18T03:12:31;18.58;;;9.85;;
21741;SDS011;11033;47.490;11.116;2022-12-18T03:15:04;22.90;;;10.38;;
21741;SDS011;11033;47.490;11.116;2022-12-18T03:17:40;17.75;;;9.43;;
21741;SDS011;11033;47.490;11.116;2022-12-18T03:20:10;19.70;;;10.77;;
21741;SDS011;11033;47.490;11.116;2022-12-18T03:22:39;18.80;;;10.05;;
21741;SDS011;11033;47.490;11.116;2022-12-18T03:25:09;22.33;;;10.25;;
21741;SDS011;11033;47.490;11.116;2022-12-18T03:27:39;21.60;;;10.38;;
21741;SDS011;11033;47.490;11.116;2022-12-18T03:30:10;20.45;;;9.95;;
21741;SDS011;11033;47.490;11.116;2022-12-18T03:35:28;15.38;;;9.00;;
21741;SDS011;11033;47.490;11.116;2022-12-18T03:37:57;15.25;;;8.98;;
21741;SDS011;11033;47.490;11.116;2022-12-18T03:40:24;16.85;;;8.57;;
21741;SDS011;11033;47.490;11.116;2022-12-18T03:43:03;16.25;;;8.70;;
21741;SDS011;11033;47.490;11.116;2022-12-18T03:45:53;16.17;;;8.45;;
21741;SDS011;11033;47.490;11.116;2022-12-18T03:51:07;15.95;;;8.20;;
21741;SDS011;11033;47.490;11.116;2022-12-18T03:53:46;16.90;;;8.95;;
21741;SDS011;11033;47.490;11.116;2022-12-18T03:56:18;15.93;;;8.38;;
21741;SDS011;11033;47.490;11.116;2022-12-18T03:58:47;17.42;;;7.45;;
21741;SDS011;11033;47.490;11.116;2022-12-18T04:01:15;15.18;;;8.43;;
21741;SDS011;11033;47.490;11.116;2022-12-18T04:03:42;16.55;;;8.80;;
21741;SDS011;11033;47.490;11.116;2022-12-18T04:06:09;19.02;;;8.63;;
21741;SDS011;11033;47.490;11.116;2022-12-18T04:08:36;14.88;;;7.70;;
21741;SDS011;11033;47.490;11.116;2022-12-18T04:11:02;15.85;;;7.93;;
21741;SDS011;11033;47.490;11.116;2022-12-18T04:13:28;15.45;;;7.97;;
21741;SDS011;11033;47.490;11.116;2022-12-18T04:15:56;17.20;;;7.85;;
21741;SDS011;11033;47.490;11.116;2022-12-18T04:18:22;15.13;;;7.90;;
21741;SDS011;11033;47.490;11.116;2022-12-18T04:20:47;14.55;;;7.75;;
21741;SDS011;11033;47.490;11.116;2022-12-18T04:23:12;15.65;;;7.95;;
21741;SDS011;11033;47.490;11.116;2022-12-18T04:25:38;14.77;;;7.78;;
21741;SDS011;11033;47.490;11.116;2022-12-18T04:28:04;14.48;;;7.40;;
21741;SDS011;11033;47.490;11.116;2022-12-18T04:30:30;14.35;;;7.85;;
21741;SDS011;11033;47.490;11.116;2022-12-18T04:32:55;14.55;;;7.35;;
21741;SDS011;11033;47.490;11.116;2022-12-18T04:35:20;13.63;;;7.70;;
21741;SDS011;11033;47.490;11.116;2022-12-18T04:37:46;13.23;;;7.32;;
21741;SDS011;11033;47.490;11.116;2022-12-18T04:40:11;15.50;;;8.80;;
21741;SDS011;11033;47.490;11.116;2022-12-18T04:42:38;13.65;;;7.78;;
21741;SDS011;11033;47.490;11.116;2022-12-18T04:45:04;13.35;;;7.18;;
21741;SDS011;11033;47.490;11.116;2022-12-18T04:47:30;13.60;;;6.57;;
21741;SDS011;11033;47.490;11.116;2022-12-18T04:49:55;14.20;;;7.32;;
21741;SDS011;11033;47.490;11.116;2022-12-18T04:52:20;11.80;;;6.55;;
21741;SDS011;11033;47.490;11.116;2022-12-18T04:54:46;16.10;;;7.75;;
21741;SDS011;11033;47.490;11.116;2022-12-18T04:57:11;11.67;;;6.43;;
21741;SDS011;11033;47.490;11.116;2022-12-18T04:59:36;13.00;;;6.53;;
21741;SDS011;11033;47.490;11.116;2022-12-18T05:02:02;11.10;;;5.75;;
21741;SDS011;11033;47.490;11.116;2022-12-18T05:04:27;9.27;;;5.68;;
21741;SDS011;11033;47.490;11.116;2022-12-18T05:06:52;13.38;;;6.88;;
21741;SDS011;11033;47.490;11.116;2022-12-18T05:09:17;12.10;;;6.15;;
21741;SDS011;11033;47.490;11.116;2022-12-18T05:11:43;13.48;;;7.05;;
21741;SDS011;11033;47.490;11.116;2022-12-18T05:14:08;10.77;;;6.75;;
21741;SDS011;11033;47.490;11.116;2022-12-18T05:16:33;13.48;;;7.40;;
21741;SDS011;11033;47.490;11.116;2022-12-18T05:18:59;12.93;;;6.85;;
21741;SDS011;11033;47.490;11.116;2022-12-18T05:21:24;11.60;;;6.45;;
21741;SDS011;11033;47.490;11.116;2022-12-18T05:23:49;10.30;;;6.03;;
21741;SDS011;11033;47.490;11.116;2022-12-18T05:26:18;10.40;;;5.73;;
21741;SDS011;11033;47.490;11.116;2022-12-18T05:28:44;10.52;;;6.32;;
21741;SDS011;11033;47.490;11.116;2022-12-18T05:31:10;11.13;;;5.95;;
21741;SDS011;11033;47.490;11.116;2022-12-18T05:33:36;11.50;;;6.25;;
21741;SDS011;11033;47.490;11.116;2022-12-18T05:36:03;10.48;;;5.95;;
21741;SDS011;11033;47.490;11.116;2022-12-18T05:38:31;10.50;;;5.95;;
21741;SDS011;11033;47.490;11.116;2022-12-18T05:40:57;12.13;;;6.63;;
21741;SDS011;11033;47.490;11.116;2022-12-18T05:43:23;10.32;;;6.03;;
21741;SDS011;11033;47.490;11.116;2022-12-18T05:45:50;10.60;;;6.28;;
21741;SDS011;11033;47.490;11.116;2022-12-18T05:48:16;10.48;;;6.30;;
21741;SDS011;11033;47.490;11.116;2022-12-18T05:50:43;12.93;;;6.25;;
21741;SDS011;11033;47.490;11.116;2022-12-18T05:53:10;10.90;;;5.65;;
21741;SDS011;11033;47.490;11.116;2022-12-18T05:55:36;14.65;;;6.55;;
21741;SDS011;11033;47.490;11.116;2022-12-18T05:58:03;10.35;;;4.82;;
21741;SDS011;11033;47.490;11.116;2022-12-18T06:00:30;9.82;;;5.60;;
21741;SDS011;11033;47.490;11.116;2022-12-18T06:02:57;10.48;;;6.30;;
21741;SDS011;11033;47.490;11.116;2022-12-18T06:05:23;13.27;;;6.18;;
21741;SDS011;11033;47.490;11.116;2022-12-18T06:07:48;12.50;;;6.57;;
21741;SDS011;11033;47.490;11.116;2022-12-18T06:10:13;11.70;;;6.88;;
21741;SDS011;11033;47.490;11.116;2022-12-18T06:12:39;10.70;;;5.35;;
21741;SDS011;11033;47.490;11.116;2022-12-18T06:15:04;12.35;;;6.57;;
21741;SDS011;11033;47.490;11.116;2022-12-18T06:17:30;12.77;;;6.97;;
21741;SDS011;11033;47.490;11.116;2022-12-18T06:19:56;14.73;;;7.53;;
21741;SDS011;11033;47.490;11.116;2022-12-18T06:22:22;12.00;;;6.82;;
21741;SDS011;11033;47.490;11.116;2022-12-18T06:24:47;12.68;;;6.53;;
21741;SDS011;11033;47.490;11.116;2022-12-18T06:27:13;8.70;;;5.18;;
21741;SDS011;11033;47.490;11.116;2022-12-18T06:29:38;10.68;;;5.97;;
21741;SDS011;11033;47.490;11.116;2022-12-18T06:32:03;11.65;;;5.82;;
21741;SDS011;11033;47.490;11.116;2022-12-18T06:34:29;10.95;;;5.50;;
21741;SDS011;11033;47.490;11.116;2022-12-18T06:36:55;9.13;;;4.68;;
21741;SDS011;11033;47.490;11.116;2022-12-18T06:39:21;9.73;;;5.22;;
21741;SDS011;11033;47.490;11.116;2022-12-18T06:41:46;9.88;;;4.88;;
21741;SDS011;11033;47.490;11.116;2022-12-18T06:44:11;8.02;;;4.63;;
21741;SDS011;11033;47.490;11.116;2022-12-18T06:46:36;10.73;;;5.45;;
21741;SDS011;11033;47.490;11.116;2022-12-18T06:49:02;9.15;;;4.90;;
21741;SDS011;11033;47.490;11.116;2022-12-18T06:51:28;8.30;;;5.07;;
21741;SDS011;11033;47.490;11.116;2022-12-18T06:53:53;8.00;;;5.03;;
21741;SDS011;11033;47.490;11.116;2022-12-18T06:56:19;7.55;;;4.65;;
21741;SDS011;11033;47.490;11.116;2022-12-18T06:58:44;10.00;;;5.18;;
21741;SDS011;11033;47.490;11.116;2022-12-18T07:01:10;8.43;;;4.10;;
21741;SDS011;11033;47.490;11.116;2022-12-18T07:03:36;7.72;;;4.97;;
21741;SDS011;11033;47.490;11.116;2022-12-18T07:06:02;11.18;;;4.93;;
21741;SDS011;11033;47.490;11.116;2022-12-18T07:08:28;9.23;;;4.60;;
21741;SDS011;11033;47.490;11.116;2022-12-18T07:10:55;8.00;;;4.25;;
21741;SDS011;11033;47.490;11.116;2022-12-18T07:13:20;6.93;;;3.87;;
21741;SDS011;11033;47.490;11.116;2022-12-18T07:15:45;7.47;;;4.00;;
21741;SDS011;11033;47.490;11.116;2022-12-18T07:18:10;8.83;;;4.53;;
21741;SDS011;11033;47.490;11.116;2022-12-18T07:20:36;9.70;;;5.13;;
21741;SDS011;11033;47.490;11.116;2022-12-18T07:23:04;7.72;;;4.18;;
21741;SDS011;11033;47.490;11.116;2022-12-18T07:25:33;9.43;;;4.72;;
21741;SDS011;11033;47.490;11.116;2022-12-18T07:28:02;10.80;;;5.28;;
21741;SDS011;11033;47.490;11.116;2022-12-18T07:30:28;8.55;;;5.25;;
21741;SDS011;11033;47.490;11.116;2022-12-18T07:32:53;8.40;;;4.53;;
21741;SDS011;11033;47.490;11.116;2022-12-18T07:35:18;8.47;;;5.23;;
21741;SDS011;11033;47.490;11.116;2022-12-18T07:37:43;8.85;;;4.88;;
21741;SDS011;11033;47.490;11.116;2022-12-18T07:40:09;9.25;;;5.40;;
21741;SDS011;11033;47.490;11.116;2022-12-18T07:42:35;8.40;;;4.38;;
21741;SDS011;11033;47.490;11.116;2022-12-18T07:45:01;6.93;;;4.43;;
21741;SDS011;11033;47.490;11.116;2022-12-18T07:47:28;6.95;;;4.13;;
21741;SDS011;11033;47.490;11.116;2022-12-18T07:49:58;6.60;;;4.00;;
21741;SDS011;11033;47.490;11.116;2022-12-18T07:52:23;7.47;;;3.92;;
21741;SDS011;11033;47.490;11.116;2022-12-18T07:54:49;6.30;;;3.67;;
21741;SDS011;11033;47.490;11.116;2022-12-18T07:57:14;8.18;;;4.07;;
21741;SDS011;11033;47.490;11.116;2022-12-18T07:59:41;6.70;;;4.05;;
21741;SDS011;11033;47.490;11.116;2022-12-18T08:02:06;6.40;;;4.10;;
21741;SDS011;11033;47.490;11.116;2022-12-18T08:04:34;6.43;;;3.88;;
21741;SDS011;11033;47.490;11.116;2022-12-18T08:06:59;8.27;;;4.05;;
21741;SDS011;11033;47.490;11.116;2022-12-18T08:09:25;4.60;;;3.38;;
21741;SDS011;11033;47.490;11.116;2022-12-18T08:11:50;9.35;;;4.32;;
21741;SDS011;11033;47.490;11.116;2022-12-18T08:14:16;11.15;;;5.13;;
21741;SDS011;11033;47.490;11.116;2022-12-18T08:16:41;9.85;;;4.32;;
21741;SDS011;11033;47.490;11.116;2022-12-18T08:19:06;8.13;;;3.37;;
21741;SDS011;11033;47.490;11.116;2022-12-18T08:21:32;5.65;;;3.40;;
21741;SDS011;11033;47.490;11.116;2022-12-18T08:23:58;5.18;;;2.92;;
21741;SDS011;11033;47.490;11.116;2022-12-18T08:26:25;4.80;;;3.08;;
21741;SDS011;11033;47.490;11.116;2022-12-18T08:28:53;5.93;;;3.75;;
21741;SDS011;11033;47.490;11.116;2022-12-18T08:31:19;5.60;;;3.38;;
21741;SDS011;11033;47.490;11.116;2022-12-18T08:33:44;8.07;;;3.90;;
21741;SDS011;11033;47.490;11.116;2022-12-18T08:36:12;6.38;;;3.15;;
21741;SDS011;11033;47.490;11.116;2022-12-18T08:38:37;6.60;;;3.45;;
21741;SDS011;11033;47.490;11.116;2022-12-18T08:41:04;7.43;;;4.05;;
21741;SDS011;11033;47.490;11.116;2022-12-18T08:43:31;5.72;;;3.70;;
21741;SDS011;11033;47.490;11.116;2022-12-18T08:46:15;7.70;;;3.95;;
21741;SDS011;11033;47.490;11.116;2022-12-18T08:48:41;6.78;;;3.92;;
21741;SDS011;11033;47.490;11.116;2022-12-18T08:51:06;6.07;;;3.55;;
21741;SDS011;11033;47.490;11.116;2022-12-18T08:53:32;7.65;;;3.70;;
21741;SDS011;11033;47.490;11.116;2022-12-18T08:55:57;7.88;;;4.28;;
21741;SDS011;11033;47.490;11.116;2022-12-18T08:58:22;10.85;;;5.20;;
21741;SDS011;11033;47.490;11.116;2022-12-18T09:00:48;15.45;;;6.35;;
21741;SDS011;11033;47.490;11.116;2022-12-18T09:03:14;12.60;;;5.90;;
21741;SDS011;11033;47.490;11.116;2022-12-18T09:05:40;6.03;;;3.65;;
21741;SDS011;11033;47.490;11.116;2022-12-18T09:08:05;57.47;;;19.48;;
21741;SDS011;11033;47.490;11.116;2022-12-18T09:10:31;30.15;;;10.70;;
21741;SDS011;11033;47.490;11.116;2022-12-18T09:12:57;28.27;;;10.95;;
21741;SDS011;11033;47.490;11.116;2022-12-18T09:15:22;9.80;;;4.80;;
21741;SDS011;11033;47.490;11.116;2022-12-18T09:17:47;12.82;;;5.38;;
21741;SDS011;11033;47.490;11.116;2022-12-18T09:20:14;24.88;;;8.38;;
21741;SDS011;11033;47.490;11.116;2022-12-18T09:22:40;94.95;;;19.90;;
21741;SDS011;11033;47.490;11.116;2022-12-18T09:25:06;18.05;;;6.75;;
21741;SDS011;11033;47.490;11.116;2022-12-18T09:27:33;8.20;;;3.47;;
21741;SDS011;11033;47.490;11.116;2022-12-18T09:29:58;20.35;;;7.45;;
21741;SDS011;11033;47.490;11.116;2022-12-18T09:32:23;14.23;;;5.25;;
21741;SDS011;11033;47.490;11.116;2022-12-18T09:34:49;55.97;;;14.35;;
21741;SDS011;11033;47.490;11.116;2022-12-18T09:37:14;71.25;;;17.95;;
21741;SDS011;11033;47.490;11.116;2022-12-18T09:39:39;8.90;;;4.67;;
21741;SDS011;11033;47.490;11.116;2022-12-18T09:42:05;20.20;;;7.47;;
21741;SDS011;11033;47.490;11.116;2022-12-18T09:44:41;23.77;;;9.35;;
21741;SDS011;11033;47.490;11.116;2022-12-18T09:47:25;27.60;;;11.27;;
21741;SDS011;11033;47.490;11.116;2022-12-18T09:49:58;22.83;;;7.80;;
21741;SDS011;11033;47.490;11.116;2022-12-18T09:52:28;26.40;;;9.02;;
21741;SDS011;11033;47.490;11.116;2022-12-18T09:57:53;34.80;;;9.43;;
21741;SDS011;11033;47.490;11.116;2022-12-18T10:00:22;18.48;;;6.90;;
21741;SDS011;11033;47.490;11.116;2022-12-18T10:02:53;22.23;;;6.57;;
21741;SDS011;11033;47.490;11.116;2022-12-18T10:08:19;15.32;;;6.25;;
21741;SDS011;11033;47.490;11.116;2022-12-18T10:10:51;8.60;;;3.20;;
21741;SDS011;11033;47.490;11.116;2022-12-18T10:18:58;13.27;;;6.77;;
21741;SDS011;11033;47.490;11.116;2022-12-18T10:21:41;10.77;;;6.88;;
21741;SDS011;11033;47.490;11.116;2022-12-18T10:26:58;5.65;;;4.18;;
21741;SDS011;11033;47.490;11.116;2022-12-18T10:29:34;6.32;;;4.03;;
21741;SDS011;11033;47.490;11.116;2022-12-18T10:32:00;3.38;;;2.80;;
21741;SDS011;11033;47.490;11.116;2022-12-18T10:34:25;4.73;;;3.63;;
21741;SDS011;11033;47.490;11.116;2022-12-18T10:36:50;3.58;;;2.50;;
21741;SDS011;11033;47.490;11.116;2022-12-18T10:39:17;4.15;;;3.30;;
21741;SDS011;11033;47.490;11.116;2022-12-18T10:41:47;3.53;;;2.50;;
21741;SDS011;11033;47.490;11.116;2022-12-18T10:46:44;3.57;;;3.10;;
21741;SDS011;11033;47.490;11.116;2022-12-18T10:49:46;2.83;;;2.45;;
21741;SDS011;11033;47.490;11.116;2022-12-18T10:52:07;2.88;;;2.20;;
21741;SDS011;11033;47.490;11.116;2022-12-18T10:54:45;2.35;;;2.15;;
21741;SDS011;11033;47.490;11.116;2022-12-18T10:57:14;5.50;;;2.40;;
21741;SDS011;11033;47.490;11.116;2022-12-18T11:02:49;2.58;;;1.90;;
21741;SDS011;11033;47.490;11.116;2022-12-18T11:05:29;2.22;;;2.03;;
21741;SDS011;11033;47.490;11.116;2022-12-18T11:07:56;2.67;;;2.45;;
21741;SDS011;11033;47.490;11.116;2022-12-18T11:10:41;2.42;;;2.17;;
21741;SDS011;11033;47.490;11.116;2022-12-18T11:13:21;1.80;;;1.65;;
21741;SDS011;11033;47.490;11.116;2022-12-18T11:15:48;2.83;;;1.85;;
21741;SDS011;11033;47.490;11.116;2022-12-18T11:18:33;2.30;;;2.10;;
21741;SDS011;11033;47.490;11.116;2022-12-18T11:21:11;1.92;;;1.83;;
21741;SDS011;11033;47.490;11.116;2022-12-18T11:23:43;2.30;;;2.03;;
21741;SDS011;11033;47.490;11.116;2022-12-18T11:26:18;2.10;;;1.90;;
21741;SDS011;11033;47.490;11.116;2022-12-18T11:28:52;2.47;;;1.60;;
21741;SDS011;11033;47.490;11.116;2022-12-18T11:31:32;5.43;;;2.30;;
21741;SDS011;11033;47.490;11.116;2022-12-18T11:36:26;2.67;;;2.08;;
21741;SDS011;11033;47.490;11.116;2022-12-18T11:38:55;3.33;;;2.00;;
21741;SDS011;11033;47.490;11.116;2022-12-18T11:41:26;3.50;;;2.25;;
21741;SDS011;11033;47.490;11.116;2022-12-18T11:44:14;4.40;;;2.45;;
21741;SDS011;11033;47.490;11.116;2022-12-18T11:46:48;2.50;;;2.05;;
21741;SDS011;11033;47.490;11.116;2022-12-18T11:49:21;5.07;;;2.97;;
21741;SDS011;11033;47.490;11.116;2022-12-18T11:51:52;2.72;;;2.47;;
21741;SDS011;11033;47.490;11.116;2022-12-18T11:54:25;2.40;;;2.15;;
21741;SDS011;11033;47.490;11.116;2022-12-18T11:56:51;3.33;;;2.38;;
21741;SDS011;11033;47.490;11.116;2022-12-18T12:05:32;6.60;;;3.22;;
21741;SDS011;11033;47.490;11.116;2022-12-18T12:16:34;4.72;;;4.05;;
21741;SDS011;11033;47.490;11.116;2022-12-18T12:25:44;15.97;;;15.23;;
21741;SDS011;11033;47.490;11.116;2022-12-18T12:36:27;13.48;;;12.77;;
21741;SDS011;11033;47.490;11.116;2022-12-18T12:39:05;7.68;;;7.28;;
21741;SDS011;11033;47.490;11.116;2022-12-18T12:41:34;5.45;;;5.05;;
21741;SDS011;11033;47.490;11.116;2022-12-18T12:44:22;3.80;;;3.58;;
21741;SDS011;11033;47.490;11.116;2022-12-18T12:46:51;4.78;;;4.30;;
21741;SDS011;11033;47.490;11.116;2022-12-18T12:49:20;3.67;;;3.38;;
21741;SDS011;11033;47.490;11.116;2022-12-18T12:51:53;3.78;;;3.53;;
21741;SDS011;11033;47.490;11.116;2022-12-18T12:54:46;8.40;;;6.50;;
21741;SDS011;11033;47.490;11.116;2022-12-18T12:57:17;4.97;;;4.00;;
21741;SDS011;11033;47.490;11.116;2022-12-18T13:02:33;3.40;;;3.10;;
21741;SDS011;11033;47.490;11.116;2022-12-18T13:05:12;4.03;;;3.65;;
21741;SDS011;11033;47.490;11.116;2022-12-18T13:07:57;4.38;;;4.07;;
21741;SDS011;11033;47.490;11.116;2022-12-18T13:10:31;4.88;;;4.47;;
21741;SDS011;11033;47.490;11.116;2022-12-18T13:15:41;8.18;;;7.45;;
21741;SDS011;11033;47.490;11.116;2022-12-18T13:20:38;8.70;;;8.20;;
21741;SDS011;11033;47.490;11.116;2022-12-18T13:33:39;7.23;;;6.93;;
21741;SDS011;11033;47.490;11.116;2022-12-18T13:36:30;6.47;;;6.18;;
21741;SDS011;11033;47.490;11.116;2022-12-18T13:41:48;6.33;;;5.77;;
21741;SDS011;11033;47.490;11.116;2022-12-18T13:44:28;3.92;;;3.63;;
21741;SDS011;11033;47.490;11.116;2022-12-18T13:46:55;3.05;;;2.75;;
21741;SDS011;11033;47.490;11.116;2022-12-18T13:49:26;2.60;;;2.40;;
21741;SDS011;11033;47.490;11.116;2022-12-18T13:52:01;2.87;;;2.57;;
21741;SDS011;11033;47.490;11.116;2022-12-18T13:54:33;3.50;;;3.30;;
21741;SDS011;11033;47.490;11.116;2022-12-18T13:57:01;3.75;;;3.45;;
21741;SDS011;11033;47.490;11.116;2022-12-18T13:59:35;2.80;;;2.60;;
21741;SDS011;11033;47.490;11.116;2022-12-18T14:02:15;4.32;;;3.92;;
21741;SDS011;11033;47.490;11.116;2022-12-18T14:04:46;3.80;;;3.40;;
21741;SDS011;11033;47.490;11.116;2022-12-18T14:07:45;3.53;;;3.22;;
21741;SDS011;11033;47.490;11.116;2022-12-18T14:10:04;18.85;;;13.15;;
21741;SDS011;11033;47.490;11.116;2022-12-18T14:12:39;44.15;;;29.15;;
21741;SDS011;11033;47.490;11.116;2022-12-18T14:20:52;54.10;;;34.47;;
21741;SDS011;11033;47.490;11.116;2022-12-18T14:26:01;49.97;;;32.30;;
21741;SDS011;11033;47.490;11.116;2022-12-18T14:28:43;50.85;;;30.98;;
21741;SDS011;11033;47.490;11.116;2022-12-18T14:31:16;52.45;;;31.20;;
21741;SDS011;11033;47.490;11.116;2022-12-18T14:33:43;57.28;;;32.95;;
21741;SDS011;11033;47.490;11.116;2022-12-18T14:36:14;41.58;;;26.15;;
21741;SDS011;11033;47.490;11.116;2022-12-18T14:38:42;36.53;;;23.35;;
21741;SDS011;11033;47.490;11.116;2022-12-18T14:43:40;12.85;;;9.18;;
21741;SDS011;11033;47.490;11.116;2022-12-18T14:46:30;17.55;;;11.75;;
21741;SDS011;11033;47.490;11.116;2022-12-18T14:48:57;23.42;;;15.43;;
21741;SDS011;11033;47.490;11.116;2022-12-18T14:51:33;40.67;;;28.52;;
21741;SDS011;11033;47.490;11.116;2022-12-18T14:54:00;36.28;;;23.85;;
21741;SDS011;11033;47.490;11.116;2022-12-18T14:56:34;34.25;;;23.77;;
21741;SDS011;11033;47.490;11.116;2022-12-18T14:59:03;36.22;;;22.83;;
21741;SDS011;11033;47.490;11.116;2022-12-18T15:01:37;56.25;;;33.35;;
21741;SDS011;11033;47.490;11.116;2022-12-18T15:04:28;58.72;;;34.42;;
21741;SDS011;11033;47.490;11.116;2022-12-18T15:07:11;54.70;;;34.00;;
21741;SDS011;11033;47.490;11.116;2022-12-18T15:09:37;20.77;;;13.13;;
21741;SDS011;11033;47.490;11.116;2022-12-18T15:12:04;17.90;;;12.80;;
21741;SDS011;11033;47.490;11.116;2022-12-18T15:14:31;17.15;;;11.40;;
21741;SDS011;11033;47.490;11.116;2022-12-18T15:17:21;7.15;;;5.05;;
21741;SDS011;11033;47.490;11.116;2022-12-18T15:19:48;10.27;;;5.05;;
21741;SDS011;11033;47.490;11.116;2022-12-18T15:22:20;14.18;;;9.10;;
21741;SDS011;11033;47.490;11.116;2022-12-18T15:24:52;37.53;;;18.90;;
21741;SDS011;11033;47.490;11.116;2022-12-18T15:27:23;19.08;;;11.00;;
21741;SDS011;11033;47.490;11.116;2022-12-18T15:32:30;14.88;;;9.05;;
21741;SDS011;11033;47.490;11.116;2022-12-18T15:35:28;10.68;;;6.90;;
21741;SDS011;11033;47.490;11.116;2022-12-18T15:37:48;11.70;;;7.05;;
21741;SDS011;11033;47.490;11.116;2022-12-18T15:40:16;7.53;;;4.60;;
21741;SDS011;11033;47.490;11.116;2022-12-18T15:42:43;8.75;;;4.35;;
21741;SDS011;11033;47.490;11.116;2022-12-18T15:45:28;7.82;;;4.68;;
21741;SDS011;11033;47.490;11.116;2022-12-18T15:47:53;5.57;;;3.65;;
21741;SDS011;11033;47.490;11.116;2022-12-18T15:50:19;3.25;;;2.47;;
21741;SDS011;11033;47.490;11.116;2022-12-18T15:52:44;2.83;;;2.05;;
21741;SDS011;11033;47.490;11.116;2022-12-18T15:55:17;4.95;;;3.20;;
21741;SDS011;11033;47.490;11.116;2022-12-18T16:00:32;4.00;;;2.72;;
21741;SDS011;11033;47.490;11.116;2022-12-18T16:02:59;5.95;;;3.38;;
21741;SDS011;11033;47.490;11.116;2022-12-18T16:05:25;5.85;;;4.20;;
21741;SDS011;11033;47.490;11.116;2022-12-18T16:07:51;6.55;;;3.95;;
21741;SDS011;11033;47.490;11.116;2022-12-18T16:10:17;6.82;;;4.22;;
21741;SDS011;11033;47.490;11.116;2022-12-18T16:12:42;7.45;;;4.32;;
21741;SDS011;11033;47.490;11.116;2022-12-18T16:15:09;7.55;;;4.40;;
21741;SDS011;11033;47.490;11.116;2022-12-18T16:17:38;11.23;;;4.95;;
21741;SDS011;11033;47.490;11.116;2022-12-18T16:20:04;8.32;;;4.07;;
21741;SDS011;11033;47.490;11.116;2022-12-18T16:22:29;5.00;;;3.00;;
21741;SDS011;11033;47.490;11.116;2022-12-18T16:24:56;5.30;;;2.70;;
21741;SDS011;11033;47.490;11.116;2022-12-18T16:27:22;5.97;;;3.28;;
21741;SDS011;11033;47.490;11.116;2022-12-18T16:29:48;5.68;;;3.38;;